KISN/ISN METAR and TAF weather

Enter ICAO airport designator
Station Type Date Time Source
KISN METAR 2019/06/18 12:52 UTC NOAA

KISN 181252Z AUTO 05003KT 10SM CLR 13/09 A3004 RMK AO2 SLP171 T01330094


Station Type Date Time Source
KISN Decoded METAR 2019/06/18 12:52 UTC NOAA

SLOULIN FIELD INTERNATIONAL AIRPORT, ND, United States (KISN) 48-11N 103-39W 579M
Jun 18, 2019 - 08:52 AM EDT / 2019.06.18 1252 UTC
Wind: from the NE (050 degrees) at 3 MPH (3 KT):0
Visibility: 10 mile(s):0
Sky conditions: clear
Temperature: 55.9 F (13.3 C)
Dew Point: 48.9 F (9.4 C)
Relative Humidity: 77%
Pressure (altimeter): 30.04 in. Hg (1017 hPa)
ob: KISN 181252Z AUTO 05003KT 10SM CLR 13/09 A3004 RMK AO2 SLP171 T01330094
cycle: 13

Station Type Date Time Source
KISN TAF 2019/06/18 12:24 UTC NOAA

TAF KISN 181121Z 1812/1912 02003KT P6SM SCT150
FM181600 13008KT P6SM SCT050
FM190700 13005KT P6SM -SHRA OVC050

Example: see airport list